createdAt,value
2018-03-18T00:00:45.849Z,7.63
2018-03-18T00:03:14.119Z,8.33
2018-03-18T00:05:43.204Z,8.00
2018-03-18T00:08:11.444Z,7.53
2018-03-18T00:10:39.654Z,7.93
2018-03-18T00:13:08.022Z,7.90
2018-03-18T00:15:36.928Z,8.03
2018-03-18T00:18:05.302Z,7.77
2018-03-18T00:20:33.580Z,8.17
2018-03-18T00:23:02.014Z,8.17
2018-03-18T00:25:32.573Z,7.70
2018-03-18T00:28:02.209Z,8.03
2018-03-18T00:30:30.681Z,7.43
2018-03-18T00:32:59.149Z,6.83
2018-03-18T00:35:28.048Z,6.57
2018-03-18T00:37:56.343Z,6.80
2018-03-18T00:40:24.578Z,6.73
2018-03-18T00:42:56.581Z,6.13
2018-03-18T00:45:24.821Z,7.23
2018-03-18T00:47:53.071Z,6.40
2018-03-18T00:50:22.134Z,6.40
2018-03-18T00:52:51.253Z,7.10
2018-03-18T00:55:20.726Z,6.53
2018-03-18T00:57:48.981Z,6.57
2018-03-18T01:00:17.375Z,6.73
2018-03-18T01:02:45.636Z,6.17
2018-03-18T01:05:14.799Z,6.80
2018-03-18T01:07:43.431Z,7.00
2018-03-18T01:10:12.645Z,6.40
2018-03-18T01:12:41.724Z,7.00
2018-03-18T01:15:12.588Z,6.87
2018-03-18T01:17:41.678Z,7.37
2018-03-18T01:20:15.553Z,6.23
2018-03-18T01:22:49.496Z,6.10
2018-03-18T01:25:21.478Z,6.77
2018-03-18T01:27:55.456Z,6.63
2018-03-18T01:30:24.555Z,6.80
2018-03-18T01:32:54.569Z,6.63
2018-03-18T01:35:22.834Z,6.37
2018-03-18T01:38:07.908Z,6.60
2018-03-18T01:40:37.960Z,6.47
2018-03-18T01:43:17.011Z,6.37
2018-03-18T01:45:45.671Z,6.27
2018-03-18T01:48:16.121Z,5.93
2018-03-18T01:50:47.252Z,6.30
2018-03-18T01:53:22.298Z,5.87
2018-03-18T01:55:51.049Z,5.93
2018-03-18T01:58:19.348Z,6.33
2018-03-18T02:00:47.932Z,6.03
2018-03-18T02:03:18.262Z,5.80
2018-03-18T02:05:46.839Z,6.67
2018-03-18T02:08:15.222Z,6.20
2018-03-18T02:10:44.360Z,5.80
2018-03-18T02:13:12.677Z,6.10
2018-03-18T02:15:40.898Z,6.43
2018-03-18T02:18:09.236Z,6.20
2018-03-18T02:20:37.516Z,6.73
2018-03-18T02:23:05.726Z,5.90
2018-03-18T02:25:33.962Z,6.43
2018-03-18T02:28:02.177Z,6.30
2018-03-18T02:30:31.312Z,6.37
2018-03-18T02:32:59.552Z,6.50
2018-03-18T02:35:28.596Z,6.03
2018-03-18T02:37:56.896Z,6.60
2018-03-18T02:40:25.882Z,6.63
2018-03-18T02:42:54.517Z,6.73
2018-03-18T02:45:23.880Z,5.97
2018-03-18T02:47:52.090Z,5.80
2018-03-18T02:50:21.070Z,6.10
2018-03-18T02:52:49.425Z,6.33
2018-03-18T02:55:17.684Z,6.83
2018-03-18T02:57:46.026Z,6.20
2018-03-18T03:00:15.061Z,6.30
2018-03-18T03:02:43.439Z,6.53
2018-03-18T03:05:11.650Z,6.40
2018-03-18T03:07:41.252Z,6.27
2018-03-18T03:10:09.841Z,6.33
2018-03-18T03:12:39.584Z,6.40
2018-03-18T03:15:08.633Z,6.63
2018-03-18T03:17:36.864Z,6.97
2018-03-18T03:20:05.997Z,6.40
2018-03-18T03:22:35.445Z,6.70
2018-03-18T03:25:04.343Z,6.50
2018-03-18T03:27:33.356Z,6.60
2018-03-18T03:30:01.974Z,6.57
2018-03-18T03:32:30.208Z,6.40
2018-03-18T03:34:59.961Z,6.33
2018-03-18T03:37:28.633Z,6.37
2018-03-18T03:39:56.867Z,6.90
2018-03-18T03:42:25.526Z,6.90
2018-03-18T03:44:55.287Z,7.07
2018-03-18T03:47:23.709Z,6.57
2018-03-18T03:49:51.935Z,6.60
2018-03-18T03:52:21.686Z,6.53
2018-03-18T03:54:50.691Z,6.80
2018-03-18T03:57:18.991Z,6.77
2018-03-18T03:59:47.768Z,6.80
2018-03-18T04:02:16.356Z,7.03
2018-03-18T04:04:44.598Z,6.90
2018-03-18T04:07:12.843Z,6.83
2018-03-18T04:09:41.038Z,7.23
2018-03-18T04:12:10.257Z,6.60
2018-03-18T04:14:38.553Z,6.40
2018-03-18T04:17:09.052Z,6.60
2018-03-18T04:19:37.370Z,6.60
2018-03-18T04:22:05.607Z,6.03
2018-03-18T04:24:33.897Z,6.50
2018-03-18T04:27:02.249Z,6.93
2018-03-18T04:29:31.226Z,7.03
2018-03-18T04:31:59.979Z,6.47
2018-03-18T04:34:28.212Z,6.53
2018-03-18T04:36:56.524Z,6.53
2018-03-18T04:39:27.244Z,6.63
2018-03-18T04:41:55.716Z,6.30
2018-03-18T04:44:24.540Z,6.80
2018-03-18T04:46:52.822Z,6.20
2018-03-18T04:49:21.362Z,7.40
2018-03-18T04:51:49.772Z,6.27
2018-03-18T04:54:19.504Z,6.63
2018-03-18T04:56:47.764Z,6.53
2018-03-18T04:59:16.358Z,6.40
2018-03-18T05:01:45.714Z,6.33
2018-03-18T05:04:17.001Z,6.67
2018-03-18T05:06:45.214Z,6.53
2018-03-18T05:09:14.302Z,5.67
2018-03-18T05:11:42.748Z,5.87
2018-03-18T05:14:10.989Z,6.60
2018-03-18T05:16:39.422Z,6.47
2018-03-18T05:19:08.445Z,6.77
2018-03-18T05:21:38.471Z,6.27
2018-03-18T05:24:07.692Z,6.00
2018-03-18T05:26:35.947Z,5.90
2018-03-18T05:29:04.274Z,6.00
2018-03-18T05:31:33.163Z,6.67
2018-03-18T05:34:01.571Z,6.27
2018-03-18T05:36:29.843Z,6.10
2018-03-18T05:38:58.239Z,5.77
2018-03-18T05:41:27.405Z,5.40
2018-03-18T05:43:55.656Z,5.63
2018-03-18T05:46:23.983Z,5.77
2018-03-18T05:48:52.259Z,5.60
2018-03-18T05:51:20.935Z,6.17
2018-03-18T05:53:49.508Z,5.37
2018-03-18T05:56:17.904Z,6.27
2018-03-18T05:58:46.185Z,5.70
2018-03-18T06:01:17.242Z,6.10
2018-03-18T06:03:45.483Z,6.33
2018-03-18T06:06:13.800Z,5.80
2018-03-18T06:08:42.838Z,6.13
2018-03-18T06:11:11.072Z,6.10
2018-03-18T06:13:41.045Z,5.60
2018-03-18T06:16:09.324Z,5.10
2018-03-18T06:18:37.554Z,6.20
2018-03-18T06:21:06.698Z,5.60
2018-03-18T06:23:35.947Z,6.00
2018-03-18T06:26:05.088Z,5.13
2018-03-18T06:28:33.336Z,4.90
2018-03-18T06:31:01.736Z,5.33
2018-03-18T06:33:30.037Z,5.27
2018-03-18T06:35:58.528Z,5.40
2018-03-18T06:38:28.138Z,5.00
2018-03-18T06:40:56.423Z,5.17
2018-03-18T06:43:24.673Z,5.70
2018-03-18T06:45:52.954Z,5.67
2018-03-18T06:48:21.328Z,5.17
2018-03-18T06:50:50.741Z,5.57
2018-03-18T06:53:19.014Z,5.67
2018-03-18T06:55:47.461Z,5.23
2018-03-18T06:58:17.261Z,5.10
2018-03-18T07:00:46.300Z,5.00
2018-03-18T07:03:15.588Z,5.00
2018-03-18T07:05:45.140Z,5.03
2018-03-18T07:08:13.512Z,5.13
2018-03-18T07:10:42.788Z,5.20
2018-03-18T07:13:11.212Z,5.53
2018-03-18T07:15:39.463Z,5.17
2018-03-18T07:18:08.515Z,4.83
2018-03-18T07:20:37.508Z,5.23
2018-03-18T07:23:07.329Z,5.20
2018-03-18T07:25:38.362Z,4.93
2018-03-18T07:28:06.595Z,5.20
2018-03-18T07:30:34.839Z,5.10
2018-03-18T07:33:05.029Z,5.70
2018-03-18T07:35:34.112Z,5.50
2018-03-18T07:38:03.261Z,4.67
2018-03-18T07:40:34.527Z,5.37
2018-03-18T07:43:04.128Z,4.83
2018-03-18T07:45:33.221Z,5.20
2018-03-18T07:48:01.492Z,5.07
2018-03-18T07:50:29.805Z,4.93
2018-03-18T07:52:59.127Z,5.13
2018-03-18T07:55:28.152Z,4.90
2018-03-18T07:57:57.164Z,5.17
2018-03-18T08:00:25.400Z,4.83
2018-03-18T08:02:55.678Z,5.23
2018-03-18T08:05:24.877Z,5.20
2018-03-18T08:07:53.235Z,5.20
2018-03-18T08:10:21.609Z,4.77
2018-03-18T08:12:49.810Z,6.00
2018-03-18T08:15:19.229Z,4.97
2018-03-18T08:17:48.448Z,5.13
2018-03-18T08:20:17.484Z,5.50
2018-03-18T08:22:45.743Z,5.57
2018-03-18T08:25:14.031Z,5.40
2018-03-18T08:27:42.323Z,5.77
2018-03-18T08:30:10.579Z,5.23
2018-03-18T08:32:39.624Z,4.90
2018-03-18T08:35:08.653Z,5.17
2018-03-18T08:37:37.892Z,6.23
2018-03-18T08:40:06.363Z,5.20
2018-03-18T08:42:34.668Z,5.53
2018-03-18T08:45:02.910Z,5.23
2018-03-18T08:47:31.316Z,5.33
2018-03-18T08:49:59.537Z,5.20
2018-03-18T08:52:29.842Z,5.33
2018-03-18T08:54:58.955Z,5.50
2018-03-18T08:57:27.362Z,5.40
2018-03-18T08:59:56.194Z,4.97
2018-03-18T09:02:24.438Z,5.43
2018-03-18T09:04:52.720Z,5.27
2018-03-18T09:07:21.147Z,5.20
2018-03-18T09:09:50.243Z,5.20
2018-03-18T09:12:19.041Z,5.40
2018-03-18T09:14:48.838Z,5.80
2018-03-18T09:17:17.138Z,5.40
2018-03-18T09:19:45.570Z,5.60
2018-03-18T09:22:14.503Z,6.10
2018-03-18T09:24:42.824Z,5.30
2018-03-18T09:27:11.089Z,5.50
2018-03-18T09:29:40.232Z,5.67
2018-03-18T09:32:09.408Z,5.53
2018-03-18T09:34:37.967Z,5.97
2018-03-18T09:37:06.235Z,5.67
2018-03-18T09:39:35.667Z,5.97
2018-03-18T09:42:03.913Z,6.30
2018-03-18T09:44:32.919Z,6.47
2018-03-18T09:47:01.893Z,5.73
2018-03-18T09:49:30.170Z,5.90
2018-03-18T09:51:59.188Z,5.40
2018-03-18T09:54:27.439Z,5.97
2018-03-18T09:56:55.746Z,4.90
2018-03-18T09:59:23.948Z,6.53
2018-03-18T10:01:52.285Z,5.53
2018-03-18T10:04:21.421Z,5.73
2018-03-18T10:06:49.662Z,5.30
2018-03-18T10:09:18.181Z,5.90
2018-03-18T10:11:47.170Z,5.60
2018-03-18T10:14:15.451Z,6.40
2018-03-18T10:16:44.685Z,4.93
2018-03-18T10:19:13.874Z,6.80
2018-03-18T10:21:42.127Z,8.97
2018-03-18T10:24:10.383Z,5.77
2018-03-18T10:26:39.014Z,5.90
2018-03-18T10:29:08.423Z,6.30
2018-03-18T10:31:37.385Z,6.13
2018-03-18T10:34:05.683Z,5.93
2018-03-18T10:36:34.040Z,6.00
2018-03-18T10:39:02.500Z,5.60
2018-03-18T10:41:30.728Z,5.83
2018-03-18T10:43:59.089Z,6.00
2018-03-18T10:46:28.207Z,5.93
2018-03-18T10:48:56.449Z,5.80
2018-03-18T10:51:24.888Z,6.50
2018-03-18T10:53:53.930Z,6.63
2018-03-18T10:56:22.230Z,5.63
2018-03-18T10:58:50.591Z,6.43
2018-03-18T11:01:24.611Z,5.57
2018-03-18T11:03:58.520Z,6.43
2018-03-18T11:06:26.808Z,6.17
2018-03-18T11:08:55.118Z,5.87
2018-03-18T11:11:24.328Z,6.20
2018-03-18T11:13:52.834Z,5.80
2018-03-18T11:16:21.116Z,6.83
2018-03-18T11:18:50.303Z,6.00
2018-03-18T11:21:18.705Z,6.37
2018-03-18T11:23:47.048Z,6.23
2018-03-18T11:26:15.327Z,6.27
2018-03-18T11:28:43.651Z,6.07
2018-03-18T11:31:15.660Z,6.57
2018-03-18T11:33:44.886Z,6.13
2018-03-18T11:36:13.120Z,6.10
2018-03-18T11:38:41.459Z,6.50
2018-03-18T11:41:11.904Z,6.10
2018-03-18T11:43:40.285Z,6.40
2018-03-18T11:46:09.516Z,6.13
2018-03-18T11:48:38.634Z,5.67
2018-03-18T11:51:06.947Z,6.37
2018-03-18T11:53:35.335Z,6.10
2018-03-18T11:56:04.373Z,6.20
2018-03-18T11:58:33.003Z,6.23
2018-03-18T12:01:02.053Z,6.47
2018-03-18T12:03:30.298Z,6.27
2018-03-18T12:05:58.696Z,6.60
2018-03-18T12:08:39.629Z,5.73
2018-03-18T12:11:08.643Z,6.10
2018-03-18T12:13:36.929Z,6.27
2018-03-18T12:16:05.981Z,6.20
2018-03-18T12:18:34.313Z,6.40
2018-03-18T12:21:03.472Z,6.23
2018-03-18T12:23:31.786Z,6.50
2018-03-18T12:26:00.225Z,6.23
2018-03-18T12:28:28.536Z,6.70
2018-03-18T12:30:57.374Z,6.00
2018-03-18T12:33:25.802Z,5.90
2018-03-18T12:35:54.045Z,6.03
2018-03-18T12:38:22.291Z,6.60
2018-03-18T12:40:53.348Z,6.87
2018-03-18T12:43:32.618Z,6.53
2018-03-18T12:46:00.990Z,6.30
2018-03-18T12:48:29.244Z,6.07
2018-03-18T12:50:57.507Z,6.70
2018-03-18T12:53:26.544Z,5.97
2018-03-18T12:55:54.956Z,6.47
2018-03-18T12:58:23.975Z,6.33
2018-03-18T13:00:52.286Z,6.33
2018-03-18T13:03:20.781Z,6.10
2018-03-18T13:05:50.384Z,6.53
2018-03-18T13:08:18.793Z,6.40
2018-03-18T13:10:49.286Z,5.90
2018-03-18T13:13:18.198Z,6.10
2018-03-18T13:15:49.514Z,6.40
2018-03-18T13:18:18.658Z,6.50
2018-03-18T13:20:47.860Z,6.20
2018-03-18T13:23:17.443Z,6.47
2018-03-18T13:25:45.852Z,6.30
2018-03-18T13:28:14.900Z,5.97
2018-03-18T13:30:43.224Z,5.90
2018-03-18T13:33:12.948Z,6.20
2018-03-18T13:35:41.217Z,6.17
2018-03-18T13:38:11.038Z,6.17
2018-03-18T13:40:39.432Z,5.60
2018-03-18T13:43:08.442Z,5.63
2018-03-18T13:45:36.739Z,6.37
2018-03-18T13:48:04.998Z,5.70
2018-03-18T13:50:33.259Z,8.50
2018-03-18T13:53:01.646Z,7.33
2018-03-18T13:55:29.930Z,6.07
2018-03-18T13:57:58.170Z,7.10
2018-03-18T14:00:26.471Z,5.60
2018-03-18T14:02:55.501Z,6.13
2018-03-18T14:05:23.817Z,6.10
2018-03-18T14:07:52.858Z,6.10
2018-03-18T14:10:21.265Z,6.40
2018-03-18T14:12:49.631Z,6.03
2018-03-18T14:15:18.861Z,6.03
2018-03-18T14:17:47.208Z,6.63
2018-03-18T14:20:15.508Z,6.30
2018-03-18T14:22:46.611Z,6.10
2018-03-18T14:25:16.660Z,5.87
2018-03-18T14:27:45.021Z,5.90
2018-03-18T14:30:14.036Z,6.60
2018-03-18T14:32:42.323Z,6.50
2018-03-18T14:35:11.463Z,6.70
2018-03-18T14:37:40.495Z,6.30
2018-03-18T14:40:08.795Z,5.70
2018-03-18T14:42:37.407Z,5.80
2018-03-18T14:45:06.640Z,6.30
2018-03-18T14:47:34.953Z,6.13
2018-03-18T14:50:04.039Z,6.20
2018-03-18T14:52:32.347Z,5.40
2018-03-18T14:55:01.520Z,6.07
2018-03-18T14:57:29.764Z,5.43
2018-03-18T14:59:57.997Z,6.07
2018-03-18T15:02:26.290Z,6.20
2018-03-18T15:04:55.330Z,6.80
2018-03-18T15:07:23.721Z,6.03
2018-03-18T15:09:51.970Z,5.53
2018-03-18T15:12:20.416Z,6.23
2018-03-18T15:14:48.631Z,6.23
2018-03-18T15:17:16.886Z,5.90
2018-03-18T15:19:45.212Z,6.23
2018-03-18T15:22:13.987Z,6.30
2018-03-18T15:24:42.247Z,6.20
2018-03-18T15:27:11.250Z,5.57
2018-03-18T15:29:39.500Z,5.90
2018-03-18T15:32:09.976Z,5.90
2018-03-18T15:34:38.937Z,6.43
2018-03-18T15:37:07.323Z,6.67
2018-03-18T15:39:35.937Z,6.07
2018-03-18T15:42:04.219Z,5.93
2018-03-18T15:44:32.500Z,5.63
2018-03-18T15:47:00.777Z,5.60
2018-03-18T15:49:29.034Z,5.90
2018-03-18T15:51:57.420Z,5.70
2018-03-18T15:54:25.686Z,5.07
2018-03-18T15:56:54.761Z,5.43
2018-03-18T15:59:23.763Z,5.70
2018-03-18T16:01:52.003Z,6.27
2018-03-18T16:04:20.904Z,5.63
2018-03-18T16:06:49.906Z,5.80
2018-03-18T16:09:18.185Z,5.70
2018-03-18T16:11:46.462Z,5.73
2018-03-18T16:14:14.688Z,5.90
2018-03-18T16:16:43.048Z,5.77
2018-03-18T16:19:11.474Z,5.30
2018-03-18T16:21:41.778Z,5.60
2018-03-18T16:24:10.052Z,5.57
2018-03-18T16:26:38.346Z,5.57
2018-03-18T16:29:18.292Z,5.10
2018-03-18T16:31:46.675Z,5.83
2018-03-18T16:34:14.947Z,4.97
2018-03-18T16:36:44.023Z,5.57
2018-03-18T16:39:13.192Z,5.10
2018-03-18T16:41:41.493Z,5.20
2018-03-18T16:44:09.919Z,5.60
2018-03-18T16:46:39.190Z,5.30
2018-03-18T16:49:07.608Z,5.03
2018-03-18T16:51:36.687Z,5.50
2018-03-18T16:54:05.181Z,5.03
2018-03-18T16:56:41.351Z,5.80
2018-03-18T16:59:14.077Z,5.40
2018-03-18T17:01:44.299Z,5.40
2018-03-18T17:04:15.444Z,4.87
2018-03-18T17:06:45.175Z,4.67
2018-03-18T17:09:16.242Z,4.70
2018-03-18T17:11:47.022Z,5.87
2018-03-18T17:14:17.482Z,5.13
2018-03-18T17:16:47.150Z,5.30
2018-03-18T17:19:16.761Z,4.80
2018-03-18T17:21:48.161Z,5.40
2018-03-18T17:24:21.711Z,5.37
2018-03-18T17:26:52.839Z,5.60
2018-03-18T17:29:22.493Z,4.83
2018-03-18T17:31:52.786Z,5.10
2018-03-18T17:34:25.354Z,10.03
2018-03-18T17:36:56.089Z,6.23
2018-03-18T17:39:28.983Z,8.20
2018-03-18T17:41:58.365Z,7.23
2018-03-18T17:44:38.392Z,8.73
2018-03-18T17:47:18.924Z,7.13
2018-03-18T17:49:59.006Z,5.07
2018-03-18T17:52:39.730Z,5.20
2018-03-18T17:55:19.807Z,5.87
2018-03-18T17:57:48.174Z,5.07
2018-03-18T18:00:16.430Z,4.70
2018-03-18T18:02:44.850Z,4.70
2018-03-18T18:05:14.104Z,4.83
2018-03-18T18:07:42.340Z,4.23
2018-03-18T18:10:10.719Z,4.73
2018-03-18T18:12:39.020Z,8.63
2018-03-18T18:15:08.306Z,4.10
2018-03-18T18:17:37.509Z,4.23
2018-03-18T18:20:08.206Z,5.30
2018-03-18T18:22:37.227Z,4.40
2018-03-18T18:25:05.497Z,6.53
2018-03-18T18:27:33.772Z,4.77
2018-03-18T18:30:02.268Z,6.53
2018-03-18T18:32:30.643Z,4.83
2018-03-18T18:34:58.915Z,4.53
2018-03-18T18:37:27.196Z,5.43
2018-03-18T18:39:56.175Z,4.90
2018-03-18T18:42:24.449Z,5.30
2018-03-18T18:44:52.808Z,6.97
2018-03-18T18:47:22.404Z,4.00
2018-03-18T18:49:51.521Z,4.53
2018-03-18T18:52:19.826Z,4.97
2018-03-18T18:54:48.149Z,4.40
2018-03-18T18:57:17.257Z,3.67
2018-03-18T18:59:46.304Z,4.30
2018-03-18T19:02:14.611Z,8.27
2018-03-18T19:04:42.873Z,4.53
2018-03-18T19:07:11.257Z,4.70
2018-03-18T19:09:39.513Z,4.10
2018-03-18T19:12:08.909Z,4.97
2018-03-18T19:14:37.163Z,3.77
2018-03-18T19:17:06.224Z,4.10
2018-03-18T19:19:35.299Z,3.90
2018-03-18T19:22:03.622Z,3.50
2018-03-18T19:24:33.227Z,4.00
2018-03-18T19:27:02.487Z,3.43
2018-03-18T19:29:30.752Z,4.30
2018-03-18T19:31:58.985Z,7.27
2018-03-18T19:34:28.010Z,4.17
2018-03-18T19:36:56.337Z,4.57
2018-03-18T19:39:25.602Z,6.87
2018-03-18T19:41:55.449Z,4.00
2018-03-18T19:44:23.780Z,4.30
2018-03-18T19:46:52.052Z,3.43
2018-03-18T19:49:20.357Z,3.67
2018-03-18T19:51:48.779Z,3.33
2018-03-18T19:54:17.208Z,3.53
2018-03-18T19:56:45.547Z,3.60
2018-03-18T19:59:13.817Z,3.43
2018-03-18T20:01:42.158Z,3.83
2018-03-18T20:04:10.573Z,3.37
2018-03-18T20:06:39.703Z,3.63
2018-03-18T20:09:08.012Z,3.70
2018-03-18T20:11:36.306Z,3.80
2018-03-18T20:14:04.701Z,3.40
2018-03-18T20:16:32.967Z,3.77
2018-03-18T20:19:01.238Z,3.87
2018-03-18T20:21:29.530Z,3.00
2018-03-18T20:23:57.887Z,3.20
2018-03-18T20:26:27.172Z,3.53
2018-03-18T20:28:55.501Z,3.30
2018-03-18T20:31:24.522Z,3.40
2018-03-18T20:33:53.188Z,3.60
2018-03-18T20:36:22.252Z,3.80
2018-03-18T20:38:50.810Z,3.50
2018-03-18T20:41:19.181Z,4.00
2018-03-18T20:43:47.641Z,3.53
2018-03-18T20:46:16.692Z,3.97
2018-03-18T20:48:45.147Z,6.07
2018-03-18T20:51:14.033Z,3.53
2018-03-18T20:53:43.031Z,7.00
2018-03-18T20:56:11.424Z,3.53
2018-03-18T20:58:39.726Z,3.53
2018-03-18T21:01:08.827Z,3.70
2018-03-18T21:03:38.224Z,4.10
2018-03-18T21:06:09.868Z,6.80
2018-03-18T21:08:38.563Z,3.13
2018-03-18T21:11:06.800Z,7.17
2018-03-18T21:13:35.110Z,3.80
2018-03-18T21:16:03.479Z,3.80
2018-03-18T21:18:32.692Z,4.90
2018-03-18T21:21:00.943Z,3.47
2018-03-18T21:23:29.435Z,3.07
2018-03-18T21:25:57.684Z,3.47
2018-03-18T21:28:25.922Z,3.10
2018-03-18T21:30:54.263Z,4.60
2018-03-18T21:33:22.670Z,3.80
2018-03-18T21:35:50.925Z,3.67
2018-03-18T21:38:19.153Z,3.47
2018-03-18T21:40:47.550Z,4.43
2018-03-18T21:43:15.868Z,3.43
2018-03-18T21:45:44.075Z,6.83
2018-03-18T21:48:13.057Z,3.43
2018-03-18T21:50:41.461Z,3.57
2018-03-18T21:53:09.743Z,5.10
2018-03-18T21:55:38.735Z,4.27
2018-03-18T21:58:07.890Z,6.43
2018-03-18T22:00:36.252Z,9.90
2018-03-18T22:03:04.551Z,3.43
2018-03-18T22:05:32.903Z,4.83
2018-03-18T22:08:01.114Z,3.83
2018-03-18T22:10:29.362Z,3.83
2018-03-18T22:12:57.572Z,4.33
2018-03-18T22:15:26.632Z,3.90
2018-03-18T22:17:55.051Z,3.50
2018-03-18T22:20:24.874Z,3.70
2018-03-18T22:22:56.590Z,3.10
2018-03-18T22:25:24.968Z,2.73
2018-03-18T22:27:53.446Z,3.00
2018-03-18T22:30:21.692Z,4.83
2018-03-18T22:32:49.932Z,3.20
2018-03-18T22:35:19.842Z,3.90
2018-03-18T22:37:48.109Z,4.47
2018-03-18T22:40:16.318Z,3.60
2018-03-18T22:42:46.200Z,3.63
2018-03-18T22:45:15.316Z,3.10
2018-03-18T22:47:43.617Z,3.53
2018-03-18T22:50:12.620Z,3.00
2018-03-18T22:52:40.958Z,3.17
2018-03-18T22:55:09.200Z,2.80
2018-03-18T22:57:37.458Z,3.47
2018-03-18T23:00:05.774Z,3.60
2018-03-18T23:02:34.156Z,3.37
2018-03-18T23:05:03.363Z,3.73
2018-03-18T23:07:31.853Z,3.30
2018-03-18T23:10:00.054Z,3.30
2018-03-18T23:12:28.485Z,2.77
2018-03-18T23:14:56.867Z,2.90
2018-03-18T23:17:25.129Z,3.00
2018-03-18T23:19:53.514Z,3.20
2018-03-18T23:22:21.751Z,3.50
2018-03-18T23:24:50.861Z,2.80
2018-03-18T23:27:20.007Z,3.17
2018-03-18T23:29:48.806Z,3.10
2018-03-18T23:32:17.231Z,2.80
2018-03-18T23:34:45.457Z,2.90
2018-03-18T23:37:13.721Z,3.17
2018-03-18T23:39:41.983Z,3.37
2018-03-18T23:42:10.239Z,2.87
2018-03-18T23:44:39.264Z,2.90
2018-03-18T23:47:07.479Z,3.00
2018-03-18T23:49:35.778Z,2.80
2018-03-18T23:52:04.514Z,2.90
2018-03-18T23:54:32.773Z,2.93
2018-03-18T23:57:01.023Z,3.20
2018-03-18T23:59:29.276Z,2.97
